createdAt,value
2023-04-05T00:00:33.523Z,100276.16
2023-04-05T00:03:00.396Z,100286.34
2023-04-05T00:05:31.568Z,100278.31
2023-04-05T00:08:02.155Z,100274.03
2023-04-05T00:10:29.929Z,100272.22
2023-04-05T00:12:57.218Z,100270.44
2023-04-05T00:15:24.185Z,100261.69
2023-04-05T00:17:51.364Z,100259.31
2023-04-05T00:20:19.341Z,100266.88
2023-04-05T00:22:47.984Z,100260.06
2023-04-05T00:25:14.620Z,100247.16
2023-04-05T00:27:45.411Z,100246.75
2023-04-05T00:30:12.329Z,100252.09
2023-04-05T00:32:40.382Z,100249.31
2023-04-05T00:35:08.829Z,100252.16
2023-04-05T00:37:37.364Z,100249.78
2023-04-05T00:40:04.527Z,100247.56
2023-04-05T00:42:31.172Z,100249.06
2023-04-05T00:44:57.842Z,100245.03
2023-04-05T00:47:24.952Z,100238.06
2023-04-05T00:49:52.494Z,100249.75
2023-04-05T00:52:24.743Z,100255.91
2023-04-05T00:54:52.538Z,100245.94
2023-04-05T00:57:21.410Z,100244.88
2023-04-05T00:59:48.063Z,100257.53
2023-04-05T01:02:28.862Z,100245.00
2023-04-05T01:05:02.609Z,100252.47
2023-04-05T01:07:35.661Z,100237.06
2023-04-05T01:10:05.504Z,100232.28
2023-04-05T01:12:34.044Z,100241.06
2023-04-05T01:15:01.354Z,100227.41
2023-04-05T01:17:30.077Z,100223.44
2023-04-05T01:20:06.806Z,100230.22
2023-04-05T01:23:11.351Z,100213.25
2023-04-05T01:26:01.654Z,100208.81
2023-04-05T01:28:57.805Z,100219.69
2023-04-05T01:31:37.850Z,100216.41
2023-04-05T01:34:23.012Z,100219.97
2023-04-05T01:36:54.825Z,100208.84
2023-04-05T01:39:23.471Z,100213.75
2023-04-05T01:41:50.475Z,100215.13
2023-04-05T01:44:17.227Z,100211.31
2023-04-05T01:46:43.952Z,100211.50
2023-04-05T01:49:11.143Z,100206.28
2023-04-05T01:51:42.067Z,100205.94
2023-04-05T01:54:09.376Z,100209.22
2023-04-05T01:56:37.446Z,100210.31
2023-04-05T01:59:04.235Z,100216.78
2023-04-05T02:01:31.962Z,100221.34
2023-04-05T02:03:58.710Z,100217.22
2023-04-05T02:06:26.316Z,100217.03
2023-04-05T02:08:53.013Z,100215.66
2023-04-05T02:11:21.000Z,100207.72
2023-04-05T02:13:47.654Z,100212.66
2023-04-05T02:16:14.694Z,100216.63
2023-04-05T02:18:41.566Z,100222.59
2023-04-05T02:21:10.744Z,100209.06
2023-04-05T02:23:38.130Z,100213.75
2023-04-05T02:26:06.485Z,100208.03
2023-04-05T02:28:33.101Z,100200.97
2023-04-05T02:31:01.285Z,100199.53
2023-04-05T02:33:30.803Z,100196.47
2023-04-05T02:35:58.964Z,100182.81
2023-04-05T02:38:25.681Z,100189.66
2023-04-05T02:40:53.852Z,100177.91
2023-04-05T02:43:20.698Z,100171.69
2023-04-05T02:45:47.462Z,100158.19
2023-04-05T02:48:14.210Z,100162.03
2023-04-05T02:50:41.584Z,100164.63
2023-04-05T02:53:08.656Z,100167.97
2023-04-05T02:55:36.718Z,100157.50
2023-04-05T02:58:03.321Z,100160.91
2023-04-05T03:00:30.000Z,100161.94
2023-04-05T03:02:56.896Z,100168.78
2023-04-05T03:05:24.128Z,100170.44
2023-04-05T03:07:52.141Z,100170.56
2023-04-05T03:10:22.627Z,100174.72
2023-04-05T03:12:51.464Z,100180.31
2023-04-05T03:15:18.196Z,100176.31
2023-04-05T03:17:45.982Z,100180.22
2023-04-05T03:20:13.048Z,100165.38
2023-04-05T03:22:40.092Z,100171.91
2023-04-05T03:25:08.454Z,100178.28
2023-04-05T03:27:35.714Z,100165.88
2023-04-05T03:30:03.807Z,100171.91
2023-04-05T03:32:32.295Z,100172.72
2023-04-05T03:34:58.949Z,100178.59
2023-04-05T03:37:25.564Z,100179.41
2023-04-05T03:39:52.311Z,100179.84
2023-04-05T03:42:18.956Z,100182.09
2023-04-05T03:44:45.615Z,100180.69
2023-04-05T03:47:13.259Z,100183.13
2023-04-05T03:49:39.949Z,100174.53
2023-04-05T03:52:06.713Z,100183.81
2023-04-05T03:54:33.354Z,100185.63
2023-04-05T03:57:01.212Z,100179.16
2023-04-05T03:59:29.746Z,100175.69
2023-04-05T04:01:57.077Z,100176.69
2023-04-05T04:04:23.790Z,100171.97
2023-04-05T04:06:50.983Z,100173.81
2023-04-05T04:09:17.640Z,100174.72
2023-04-05T04:11:44.232Z,100183.63
2023-04-05T04:14:11.035Z,100182.91
2023-04-05T04:16:38.031Z,100186.25
2023-04-05T04:19:04.847Z,100171.25
2023-04-05T04:21:32.804Z,100176.72
2023-04-05T04:24:00.903Z,100179.13
2023-04-05T04:26:29.244Z,100173.69
2023-04-05T04:28:56.387Z,100180.34
2023-04-05T04:31:23.123Z,100177.03
2023-04-05T04:33:50.491Z,100175.97
2023-04-05T04:36:19.484Z,100172.38
2023-04-05T04:38:46.114Z,100163.66
2023-04-05T04:41:14.066Z,100177.50
2023-04-05T04:43:43.988Z,100168.44
2023-04-05T04:46:15.203Z,100173.09
2023-04-05T04:48:42.463Z,100180.81
2023-04-05T04:51:10.287Z,100173.81
2023-04-05T04:53:37.003Z,100162.78
2023-04-05T04:56:10.202Z,100174.41
2023-04-05T04:58:37.053Z,100189.16
2023-04-05T05:01:09.185Z,100180.53
2023-04-05T05:03:41.076Z,100173.38
2023-04-05T05:06:08.198Z,100172.69
2023-04-05T05:08:38.733Z,100178.38
2023-04-05T05:11:08.100Z,100172.91
2023-04-05T05:13:36.305Z,100175.47
2023-04-05T05:16:04.589Z,100178.94
2023-04-05T05:18:31.649Z,100193.16
2023-04-05T05:20:58.335Z,100180.94
2023-04-05T05:23:25.029Z,100188.97
2023-04-05T05:25:57.921Z,100195.47
2023-04-05T05:28:27.122Z,100189.44
2023-04-05T05:30:55.053Z,100199.94
2023-04-05T05:33:21.708Z,100199.34
2023-04-05T05:35:49.964Z,100200.72
2023-04-05T05:38:16.920Z,100206.69
2023-04-05T05:40:44.173Z,100209.72
2023-04-05T05:43:11.226Z,100221.56
2023-04-05T05:45:37.943Z,100229.38
2023-04-05T05:48:04.915Z,100233.69
2023-04-05T05:50:33.058Z,100238.09
2023-04-05T05:53:01.637Z,100230.75
2023-04-05T05:55:28.576Z,100239.28
2023-04-05T05:57:56.714Z,100230.53
2023-04-05T06:00:23.433Z,100230.97
2023-04-05T06:02:50.815Z,100241.50
2023-04-05T06:05:17.725Z,100231.59
2023-04-05T06:07:44.503Z,100232.53
2023-04-05T06:10:13.334Z,100236.84
2023-04-05T06:12:40.028Z,100226.03
2023-04-05T06:15:08.983Z,100226.22
2023-04-05T06:17:41.909Z,100233.69
2023-04-05T06:20:11.865Z,100237.50
2023-04-05T06:22:40.945Z,100236.94
2023-04-05T06:25:08.919Z,100232.69
2023-04-05T06:27:36.010Z,100249.25
2023-04-05T06:30:03.733Z,100251.69
2023-04-05T06:32:31.761Z,100245.94
2023-04-05T06:34:58.626Z,100256.53
2023-04-05T06:37:25.586Z,100266.44
2023-04-05T06:39:52.181Z,100277.59
2023-04-05T06:42:18.816Z,100279.88
2023-04-05T06:44:46.810Z,100287.81
2023-04-05T06:47:14.743Z,100304.03
2023-04-05T06:49:41.446Z,100301.63
2023-04-05T06:52:09.529Z,100301.63
2023-04-05T06:54:39.653Z,100310.38
2023-04-05T06:57:06.439Z,100318.59
2023-04-05T06:59:33.319Z,100317.50
2023-04-05T07:02:00.557Z,100311.09
2023-04-05T07:04:29.310Z,100326.25
2023-04-05T07:06:56.607Z,100329.50
2023-04-05T07:09:25.438Z,100339.13
2023-04-05T07:11:52.099Z,100340.44
2023-04-05T07:14:19.977Z,100354.31
2023-04-05T07:16:48.552Z,100354.63
2023-04-05T07:19:17.523Z,100365.38
2023-04-05T07:21:44.290Z,100358.94
2023-04-05T07:24:12.266Z,100365.19
2023-04-05T07:26:40.345Z,100373.81
2023-04-05T07:29:08.574Z,100368.94
2023-04-05T07:31:36.771Z,100372.47
2023-04-05T07:34:03.520Z,100377.69
2023-04-05T07:36:32.273Z,100372.31
2023-04-05T07:38:59.106Z,100374.78
2023-04-05T07:41:28.470Z,100375.53
2023-04-05T07:43:55.143Z,100371.09
2023-04-05T07:46:23.416Z,100365.19
2023-04-05T07:48:50.222Z,100371.94
2023-04-05T07:51:18.245Z,100374.56
2023-04-05T07:53:44.917Z,100366.97
2023-04-05T07:56:13.552Z,100370.41
2023-04-05T07:58:43.385Z,100372.06
2023-04-05T08:01:11.507Z,100371.81
2023-04-05T08:03:41.141Z,100373.69
2023-04-05T08:06:19.089Z,100360.16
2023-04-05T08:08:48.077Z,100369.22
2023-04-05T08:11:14.773Z,100362.88
2023-04-05T08:13:43.150Z,100361.94
2023-04-05T08:16:10.537Z,100364.75
2023-04-05T08:18:37.993Z,100361.13
2023-04-05T08:21:04.718Z,100352.84
2023-04-05T08:23:32.195Z,100350.88
2023-04-05T08:25:58.875Z,100348.38
2023-04-05T08:28:27.161Z,100351.59
2023-04-05T08:30:57.901Z,100357.28
2023-04-05T08:33:27.782Z,100343.97
2023-04-05T08:35:54.552Z,100351.53
2023-04-05T08:38:21.632Z,100353.78
2023-04-05T08:40:51.339Z,100350.66
2023-04-05T08:43:35.385Z,100356.06
2023-04-05T08:46:03.844Z,100359.56
2023-04-05T08:48:34.692Z,100360.00
2023-04-05T08:51:01.335Z,100354.78
2023-04-05T08:53:28.066Z,100358.31
2023-04-05T08:56:01.105Z,100352.91
2023-04-05T08:58:30.565Z,100353.59
2023-04-05T09:00:58.720Z,100364.25
2023-04-05T09:03:45.284Z,100359.88
2023-04-05T09:06:12.899Z,100357.81
2023-04-05T09:08:39.936Z,100359.78
2023-04-05T09:11:06.614Z,100366.16
2023-04-05T09:13:33.323Z,100362.44
2023-04-05T09:16:01.680Z,100353.47
2023-04-05T09:18:28.344Z,100359.94
2023-04-05T09:21:07.400Z,100348.66
2023-04-05T09:23:36.588Z,100353.25
2023-04-05T09:26:19.861Z,100354.09
2023-04-05T09:28:46.527Z,100357.13
2023-04-05T09:31:45.669Z,100353.56
2023-04-05T09:34:21.102Z,100345.59
2023-04-05T09:36:47.718Z,100346.13
2023-04-05T09:39:17.381Z,100347.19
2023-04-05T09:42:07.974Z,100345.31
2023-04-05T09:44:54.684Z,100345.50
2023-04-05T09:47:27.652Z,100340.16
2023-04-05T09:49:54.642Z,100343.22
2023-04-05T09:52:24.607Z,100332.59
2023-04-05T09:54:56.580Z,100324.56
2023-04-05T09:57:27.453Z,100336.44
2023-04-05T09:59:55.007Z,100330.81
2023-04-05T10:02:23.963Z,100323.00
2023-04-05T10:04:51.454Z,100333.19
2023-04-05T10:07:19.848Z,100328.88
2023-04-05T10:09:48.554Z,100328.34
2023-04-05T10:12:27.088Z,100326.69
2023-04-05T10:14:56.807Z,100324.06
2023-04-05T10:17:58.636Z,100308.88
2023-04-05T10:20:28.361Z,100313.78
2023-04-05T10:23:04.384Z,100317.81
2023-04-05T10:26:31.363Z,100308.91
2023-04-05T10:29:07.294Z,100307.84
2023-04-05T10:31:52.412Z,100312.66
2023-04-05T10:34:26.615Z,100303.53
2023-04-05T10:37:01.532Z,100294.59
2023-04-05T10:39:35.378Z,100299.22
2023-04-05T10:42:28.360Z,100294.06
2023-04-05T10:45:11.439Z,100293.78
2023-04-05T10:47:46.344Z,100293.78
2023-04-05T10:50:20.202Z,100293.25
2023-04-05T10:52:48.282Z,100292.16
2023-04-05T10:55:16.919Z,100295.44
2023-04-05T10:57:45.666Z,100291.38
2023-04-05T11:00:14.949Z,100297.59
2023-04-05T11:02:42.579Z,100292.47
2023-04-05T11:05:30.835Z,100295.97
2023-04-05T11:08:02.851Z,100293.53
2023-04-05T11:10:30.177Z,100287.31
2023-04-05T11:12:56.777Z,100273.25
2023-04-05T11:15:29.204Z,100278.13
2023-04-05T11:18:17.647Z,100278.13
2023-04-05T11:20:56.247Z,100277.56
2023-04-05T11:23:25.160Z,100271.63
2023-04-05T11:26:00.141Z,100268.13
2023-04-05T11:28:32.170Z,100264.59
2023-04-05T11:31:13.062Z,100261.34
2023-04-05T11:34:02.095Z,100267.03
2023-04-05T11:36:35.777Z,100268.63
2023-04-05T11:39:24.024Z,100259.72
2023-04-05T11:42:04.230Z,100267.00
2023-04-05T11:44:53.346Z,100261.34
2023-04-05T11:47:24.753Z,100265.09
2023-04-05T11:49:52.058Z,100265.09
2023-04-05T11:52:20.771Z,100257.47
2023-04-05T11:54:48.922Z,100262.94
2023-04-05T11:57:20.944Z,100251.84
2023-04-05T11:59:52.019Z,100244.84
2023-04-05T12:02:18.991Z,100244.28
2023-04-05T12:04:54.943Z,100240.19
2023-04-05T12:07:22.007Z,100239.69
2023-04-05T12:10:04.040Z,100237.50
2023-04-05T12:12:36.473Z,100241.84
2023-04-05T12:15:03.566Z,100239.16
2023-04-05T12:17:43.566Z,100238.56
2023-04-05T12:20:12.162Z,100228.34
2023-04-05T12:22:41.308Z,100232.88
2023-04-05T12:25:08.882Z,100223.97
2023-04-05T12:27:35.971Z,100217.72
2023-04-05T12:30:17.950Z,100210.41
2023-04-05T12:32:51.414Z,100195.84
2023-04-05T12:35:25.639Z,100192.00
2023-04-05T12:37:52.389Z,100193.09
2023-04-05T12:40:24.363Z,100178.75
2023-04-05T12:42:53.354Z,100155.97
2023-04-05T12:45:23.677Z,100170.44
2023-04-05T12:47:58.434Z,100164.41
2023-04-05T12:50:30.415Z,100157.94
2023-04-05T12:53:01.740Z,100155.47
2023-04-05T12:55:29.954Z,100152.41
2023-04-05T12:57:59.892Z,100154.69
2023-04-05T13:00:28.673Z,100160.16
2023-04-05T13:02:58.303Z,100162.31
2023-04-05T13:05:30.371Z,100158.03
2023-04-05T13:07:59.924Z,100152.03
2023-04-05T13:10:26.700Z,100155.84
2023-04-05T13:12:53.380Z,100152.31
2023-04-05T13:15:21.413Z,100159.06
2023-04-05T13:17:51.094Z,100158.56
2023-04-05T13:20:18.674Z,100146.09
2023-04-05T13:22:47.653Z,100152.63
2023-04-05T13:25:16.731Z,100153.72
2023-04-05T13:27:43.882Z,100152.34
2023-04-05T13:30:10.973Z,100153.19
2023-04-05T13:32:37.656Z,100140.22
2023-04-05T13:35:05.812Z,100134.28
2023-04-05T13:37:32.569Z,100124.81
2023-04-05T13:39:59.214Z,100122.13
2023-04-05T13:42:25.927Z,100124.59
2023-04-05T13:44:52.538Z,100128.88
2023-04-05T13:47:20.035Z,100132.13
2023-04-05T13:49:47.876Z,100128.91
2023-04-05T13:52:14.737Z,100128.63
2023-04-05T13:54:41.328Z,100122.94
2023-04-05T13:57:08.536Z,100134.56
2023-04-05T13:59:35.259Z,100139.19
2023-04-05T14:02:02.291Z,100142.94
2023-04-05T14:04:29.549Z,100134.56
2023-04-05T14:06:56.425Z,100124.59
2023-04-05T14:09:23.029Z,100126.22
2023-04-05T14:11:51.808Z,100138.88
2023-04-05T14:14:18.418Z,100136.19
2023-04-05T14:16:46.376Z,100140.25
2023-04-05T14:19:13.084Z,100143.50
2023-04-05T14:21:42.430Z,100142.41
2023-04-05T14:24:09.197Z,100144.50
2023-04-05T14:26:37.374Z,100142.97
2023-04-05T14:29:04.235Z,100147.03
2023-04-05T14:31:31.099Z,100141.31
2023-04-05T14:33:57.905Z,100136.47
2023-04-05T14:36:24.570Z,100132.69
2023-04-05T14:38:52.391Z,100138.09
2023-04-05T14:41:19.450Z,100141.34
2023-04-05T14:43:47.477Z,100148.63
2023-04-05T14:46:14.188Z,100148.88
2023-04-05T14:48:42.339Z,100156.38
2023-04-05T14:51:10.506Z,100150.72
2023-04-05T14:53:37.420Z,100149.88
2023-04-05T14:56:04.354Z,100157.47
2023-04-05T14:58:33.070Z,100152.06
2023-04-05T15:00:59.932Z,100166.59
2023-04-05T15:03:27.819Z,100161.25
2023-04-05T15:05:56.042Z,100158.00
2023-04-05T15:08:22.767Z,100151.47
2023-04-05T15:10:51.121Z,100154.19
2023-04-05T15:13:19.786Z,100167.13
2023-04-05T15:15:46.494Z,100151.41
2023-04-05T15:18:14.723Z,100161.16
2023-04-05T15:20:41.415Z,100164.31
2023-04-05T15:23:09.989Z,100163.72
2023-04-05T15:25:37.934Z,100161.16
2023-04-05T15:28:07.092Z,100168.16
2023-04-05T15:30:35.218Z,100162.09
2023-04-05T15:33:03.178Z,100169.19
2023-04-05T15:35:29.927Z,100172.66
2023-04-05T15:37:58.024Z,100167.50
2023-04-05T15:40:25.972Z,100165.34
2023-04-05T15:42:56.231Z,100178.75
2023-04-05T15:45:23.146Z,100184.13
2023-04-05T15:47:49.797Z,100188.44
2023-04-05T15:50:16.670Z,100189.91
2023-04-05T15:52:43.326Z,100185.06
2023-04-05T15:55:09.991Z,100191.22
2023-04-05T15:57:36.746Z,100201.34
2023-04-05T16:00:04.013Z,100197.19
2023-04-05T16:02:31.738Z,100192.91
2023-04-05T16:04:58.406Z,100185.22
2023-04-05T16:07:26.261Z,100190.78
2023-04-05T16:09:52.897Z,100199.19
2023-04-05T16:12:20.791Z,100205.66
2023-04-05T16:14:47.748Z,100200.38
2023-04-05T16:17:14.709Z,100198.25
2023-04-05T16:19:43.414Z,100208.81
2023-04-05T16:22:12.122Z,100205.56
2023-04-05T16:24:39.307Z,100205.66
2023-04-05T16:27:06.432Z,100211.69
2023-04-05T16:29:33.324Z,100204.38
2023-04-05T16:32:00.080Z,100202.91
2023-04-05T16:34:28.311Z,100197.06
2023-04-05T16:36:55.045Z,100201.59
2023-04-05T16:39:22.786Z,100194.53
2023-04-05T16:41:50.744Z,100207.53
2023-04-05T16:44:17.448Z,100207.97
2023-04-05T16:46:46.135Z,100200.22
2023-04-05T16:49:14.837Z,100187.91
2023-04-05T16:51:41.831Z,100191.22
2023-04-05T16:54:08.593Z,100205.63
2023-04-05T16:56:35.317Z,100212.41
2023-04-05T16:59:05.885Z,100222.03
2023-04-05T17:01:35.134Z,100220.56
2023-04-05T17:04:01.890Z,100230.91
2023-04-05T17:06:29.034Z,100225.00
2023-04-05T17:08:55.837Z,100219.75
2023-04-05T17:11:22.742Z,100224.81
2023-04-05T17:13:49.996Z,100232.63
2023-04-05T17:16:16.906Z,100241.16
2023-04-05T17:18:43.619Z,100237.53
2023-04-05T17:21:13.888Z,100238.16
2023-04-05T17:23:40.667Z,100245.91
2023-04-05T17:26:08.526Z,100256.56
2023-04-05T17:28:35.263Z,100263.19
2023-04-05T17:31:03.143Z,100263.56
2023-04-05T17:33:29.967Z,100268.72
2023-04-05T17:35:58.236Z,100261.38
2023-04-05T17:38:25.082Z,100262.78
2023-04-05T17:40:53.642Z,100265.31
2023-04-05T17:43:20.305Z,100270.88
2023-04-05T17:45:47.064Z,100274.31
2023-04-05T17:48:13.800Z,100282.84
2023-04-05T17:50:40.970Z,100288.16
2023-04-05T17:53:07.620Z,100294.91
2023-04-05T17:55:34.328Z,100296.19
2023-04-05T17:58:01.051Z,100297.41
2023-04-05T18:00:27.816Z,100299.25
2023-04-05T18:02:55.187Z,100310.78
2023-04-05T18:05:21.878Z,100307.00
2023-04-05T18:07:48.571Z,100318.38
2023-04-05T18:10:15.731Z,100312.81
2023-04-05T18:12:42.540Z,100322.66
2023-04-05T18:15:11.057Z,100326.28
2023-04-05T18:17:37.972Z,100328.22
2023-04-05T18:20:05.693Z,100335.97
2023-04-05T18:22:33.852Z,100345.75
2023-04-05T18:25:00.616Z,100335.59
2023-04-05T18:27:27.321Z,100345.06
2023-04-05T18:29:54.009Z,100343.22
2023-04-05T18:32:20.896Z,100349.38
2023-04-05T18:34:47.671Z,100353.09
2023-04-05T18:37:14.377Z,100361.03
2023-04-05T18:39:41.319Z,100354.72
2023-04-05T18:42:09.602Z,100351.25
2023-04-05T18:44:36.308Z,100353.06
2023-04-05T18:47:04.778Z,100354.38
2023-04-05T18:49:35.102Z,100350.63
2023-04-05T18:52:03.697Z,100343.50
2023-04-05T18:54:30.403Z,100348.97
2023-04-05T18:56:57.069Z,100342.94
2023-04-05T18:59:23.933Z,100337.09
2023-04-05T19:01:51.569Z,100335.19
2023-04-05T19:04:18.898Z,100323.56
2023-04-05T19:06:45.664Z,100321.56
2023-04-05T19:09:12.373Z,100317.59
2023-04-05T19:11:39.041Z,100317.38
2023-04-05T19:14:05.679Z,100304.28
2023-04-05T19:16:32.399Z,100305.47
2023-04-05T19:18:59.174Z,100301.91
2023-04-05T19:21:26.023Z,100297.16
2023-04-05T19:23:52.853Z,100290.19
2023-04-05T19:26:21.860Z,100289.56
2023-04-05T19:28:50.670Z,100274.25
2023-04-05T19:31:17.372Z,100274.94
2023-04-05T19:33:44.210Z,100276.47
2023-04-05T19:36:11.009Z,100261.28
2023-04-05T19:38:39.487Z,100261.09
2023-04-05T19:41:06.296Z,100266.31
2023-04-05T19:43:36.493Z,100253.56
2023-04-05T19:46:07.644Z,100250.38
2023-04-05T19:48:35.935Z,100249.28
2023-04-05T19:51:10.481Z,100244.50
2023-04-05T19:53:41.799Z,100241.97
2023-04-05T19:56:12.839Z,100236.63
2023-04-05T19:58:39.876Z,100232.81
2023-04-05T20:01:07.387Z,100230.28
2023-04-05T20:03:42.471Z,100226.69
2023-04-05T20:06:11.333Z,100223.75
2023-04-05T20:08:43.117Z,100228.13
2023-04-05T20:11:17.125Z,100210.88
2023-04-05T20:13:56.433Z,100224.78
2023-04-05T20:16:30.078Z,100213.84
2023-04-05T20:19:05.463Z,100210.28
2023-04-05T20:21:34.493Z,100211.97
2023-04-05T20:24:02.056Z,100209.91
2023-04-05T20:26:32.496Z,100208.81
2023-04-05T20:29:01.780Z,100210.88
2023-04-05T20:31:35.205Z,100204.09
2023-04-05T20:34:18.471Z,100194.25
2023-04-05T20:36:48.426Z,100189.56
2023-04-05T20:39:15.748Z,100187.00
2023-04-05T20:41:42.788Z,100198.09
2023-04-05T20:44:11.051Z,100189.56
2023-04-05T20:46:37.943Z,100183.16
2023-04-05T20:49:04.639Z,100174.63
2023-04-05T20:51:31.705Z,100187.13
2023-04-05T20:53:58.389Z,100175.13
2023-04-05T20:56:25.236Z,100179.38
2023-04-05T20:58:53.673Z,100170.59
2023-04-05T21:01:20.410Z,100165.13
2023-04-05T21:03:48.086Z,100157.41
2023-04-05T21:06:15.021Z,100164.59
2023-04-05T21:08:42.037Z,100159.09
2023-04-05T21:11:12.769Z,100154.88
2023-04-05T21:13:41.387Z,100151.91
2023-04-05T21:16:09.782Z,100142.84
2023-04-05T21:18:36.524Z,100144.19
2023-04-05T21:21:03.525Z,100141.44
2023-04-05T21:23:31.587Z,100136.22
2023-04-05T21:25:59.702Z,100135.94
2023-04-05T21:28:29.267Z,100139.50
2023-04-05T21:30:56.325Z,100131.31
2023-04-05T21:33:23.133Z,100128.13
2023-04-05T21:35:50.813Z,100128.66
2023-04-05T21:38:18.075Z,100122.72
2023-04-05T21:40:44.913Z,100121.63
2023-04-05T21:43:14.074Z,100120.63
2023-04-05T21:45:40.843Z,100106.69
2023-04-05T21:48:08.933Z,100106.75
2023-04-05T21:50:35.650Z,100109.59
2023-04-05T21:53:03.697Z,100103.22
2023-04-05T21:55:30.348Z,100103.72
2023-04-05T21:57:58.277Z,100109.00
2023-04-05T22:00:24.959Z,100104.25
2023-04-05T22:02:51.773Z,100105.81
2023-04-05T22:05:36.274Z,100108.56
2023-04-05T22:08:05.960Z,100108.09
2023-04-05T22:10:32.970Z,100105.81
2023-04-05T22:13:00.756Z,100106.59
2023-04-05T22:15:27.479Z,100099.63
2023-04-05T22:17:54.158Z,100105.47
2023-04-05T22:20:21.175Z,100098.91
2023-04-05T22:22:47.974Z,100094.06
2023-04-05T22:25:14.797Z,100102.00
2023-04-05T22:27:41.638Z,100106.47
2023-04-05T22:30:08.808Z,100101.13
2023-04-05T22:32:36.099Z,100099.19
2023-04-05T22:35:04.476Z,100103.22
2023-04-05T22:37:35.775Z,100099.03
2023-04-05T22:40:04.562Z,100101.66
2023-04-05T22:42:31.633Z,100100.09
2023-04-05T22:44:58.312Z,100092.22
2023-04-05T22:47:26.296Z,100096.44
2023-04-05T22:49:53.202Z,100099.63
2023-04-05T22:52:20.133Z,100091.97
2023-04-05T22:54:46.869Z,100092.13
2023-04-05T22:57:13.673Z,100090.00
2023-04-05T22:59:40.538Z,100096.38
2023-04-05T23:02:07.782Z,100093.75
2023-04-05T23:04:35.762Z,100097.31
2023-04-05T23:07:02.477Z,100083.00
2023-04-05T23:09:29.140Z,100087.59
2023-04-05T23:11:56.279Z,100083.72
2023-04-05T23:14:22.966Z,100073.03
2023-04-05T23:16:49.640Z,100079.22
2023-04-05T23:19:16.744Z,100080.13
2023-04-05T23:21:43.441Z,100066.06
2023-04-05T23:24:10.937Z,100065.06
2023-04-05T23:26:37.741Z,100074.78
2023-04-05T23:29:04.401Z,100068.50
2023-04-05T23:31:31.173Z,100053.28
2023-04-05T23:33:58.003Z,100064.22
2023-04-05T23:36:24.752Z,100064.88
2023-04-05T23:38:51.557Z,100052.81
2023-04-05T23:41:18.264Z,100064.22
2023-04-05T23:43:45.048Z,100054.91
2023-04-05T23:46:13.038Z,100053.28
2023-04-05T23:48:40.850Z,100063.16
2023-04-05T23:51:08.726Z,100058.16
2023-04-05T23:53:35.507Z,100039.34
2023-04-05T23:56:03.955Z,100049.91
2023-04-05T23:58:31.287Z,100039.78
